Time;durP1;ratioP1;P1;durP2;ratioP2;P2;SDS_P1;SDS_P2;PMS_P1;PMS_P2;Temp;Humidity;BMP_temperature;BMP_pressure;BME280_temperature;BME280_humidity;BME280_pressure;Samples;Min_cycle;Max_cycle;Signal;HPM_P1;HPM_P2
2021/04/04 00:02:24;;;;;;;37.35;7.25;;;6.40;99.90;;;;;;5052586;28;20021;-55
2021/04/04 00:04:51;;;;;;;27.75;5.72;;;6.40;99.90;;;;;;5051614;28;20045;-54
2021/04/04 00:07:17;;;;;;;33.85;6.80;;;6.40;99.90;;;;;;5050531;28;20028;-50
2021/04/04 00:09:42;;;;;;;38.72;6.53;;;6.30;99.90;;;;;;5051363;28;20048;-51
2021/04/04 00:12:09;;;;;;;27.17;5.75;;;6.30;99.90;;;;;;5052941;28;20044;-50
2021/04/04 00:14:35;;;;;;;28.70;5.88;;;6.20;99.90;;;;;;5052163;28;20032;-53
2021/04/04 00:17:01;;;;;;;28.00;6.78;;;6.20;99.90;;;;;;5049330;28;21166;-50
2021/04/04 00:19:27;;;;;;;19.83;5.70;;;6.20;99.90;;;;;;5048688;28;20013;-51
2021/04/04 00:21:52;;;;;;;27.67;5.90;;;6.20;99.90;;;;;;5046496;28;20398;-51
2021/04/04 00:24:18;;;;;;;32.33;6.80;;;6.20;99.90;;;;;;5039493;28;20437;-53
2021/04/04 00:26:43;;;;;;;29.75;6.15;;;6.20;99.90;;;;;;5058573;28;20158;-52
2021/04/04 00:29:09;;;;;;;27.77;6.32;;;6.20;99.90;;;;;;5051974;28;20033;-50
2021/04/04 00:31:35;;;;;;;30.50;6.85;;;6.10;99.90;;;;;;5049660;28;20033;-50
2021/04/04 00:34:02;;;;;;;40.30;6.65;;;5.90;99.90;;;;;;5050334;28;20033;-54
2021/04/04 00:36:28;;;;;;;32.80;6.45;;;5.90;99.90;;;;;;5044205;28;20522;-50
2021/04/04 00:38:54;;;;;;;30.98;6.57;;;5.70;99.90;;;;;;5052196;28;20031;-50
2021/04/04 00:41:20;;;;;;;32.92;6.50;;;5.80;99.90;;;;;;5050522;28;20028;-52
2021/04/04 00:43:45;;;;;;;24.15;5.97;;;5.70;99.90;;;;;;5050789;28;20155;-52
2021/04/04 00:46:11;;;;;;;42.47;6.78;;;5.70;99.90;;;;;;5050571;28;20068;-54
2021/04/04 00:48:36;;;;;;;34.00;6.97;;;5.60;99.90;;;;;;5047318;28;20600;-50
2021/04/04 00:51:02;;;;;;;45.75;9.57;;;5.60;99.90;;;;;;5051032;28;20020;-52
2021/04/04 00:53:28;;;;;;;38.10;6.13;;;5.60;99.90;;;;;;5052046;28;20024;-51
2021/04/04 00:55:54;;;;;;;39.50;7.38;;;5.60;99.90;;;;;;5054006;28;20036;-50
2021/04/04 00:58:20;;;;;;;33.83;6.53;;;5.70;99.90;;;;;;5051046;28;20032;-50
2021/04/04 01:00:45;;;;;;;37.40;7.53;;;5.70;99.90;;;;;;5051167;28;20401;-50
2021/04/04 01:03:11;;;;;;;36.88;7.32;;;5.70;99.90;;;;;;5049093;28;20037;-53
2021/04/04 01:05:41;;;;;;;23.98;8.23;;;5.60;99.90;;;;;;5050203;28;20025;-50
2021/04/04 01:08:07;;;;;;;27.60;7.82;;;5.60;99.90;;;;;;5048868;28;20044;-52
2021/04/04 01:10:35;;;;;;;30.88;7.28;;;5.60;99.90;;;;;;5051198;28;20188;-49
2021/04/04 01:13:11;;;;;;;36.00;7.88;;;5.60;99.90;;;;;;5051224;28;20385;-51
2021/04/04 01:16:10;;;;;;;28.13;6.85;;;5.70;99.90;;;;;;5050418;28;20082;-52
2021/04/04 01:18:35;;;;;;;36.97;6.65;;;5.70;99.90;;;;;;5043238;28;20514;-50
2021/04/04 01:21:11;;;;;;;30.50;6.97;;;5.60;99.90;;;;;;5050894;28;20025;-49
2021/04/04 01:24:12;;;;;;;41.40;9.27;;;5.60;99.90;;;;;;5048035;28;20027;-50
2021/04/04 01:26:49;;;;;;;40.38;8.82;;;5.70;99.90;;;;;;5049664;28;20017;-52
2021/04/04 01:29:18;;;;;;;35.47;8.32;;;5.70;99.90;;;;;;5049956;28;20029;-52
2021/04/04 01:31:45;;;;;;;44.88;8.02;;;5.70;99.90;;;;;;5031264;28;20025;-53
2021/04/04 01:34:13;;;;;;;30.90;7.80;;;5.70;99.90;;;;;;5049419;28;20025;-51
2021/04/04 01:36:40;;;;;;;32.45;8.02;;;5.70;99.90;;;;;;5047392;28;20425;-49
2021/04/04 01:39:09;;;;;;;31.30;7.53;;;5.60;99.90;;;;;;5050736;28;20090;-51
2021/04/04 01:41:43;;;;;;;36.00;7.93;;;5.60;99.90;;;;;;5050729;28;20867;-53
2021/04/04 01:44:15;;;;;;;33.83;8.33;;;5.70;99.90;;;;;;5053167;28;20047;-54
2021/04/04 01:46:43;;;;;;;45.50;8.57;;;5.70;99.90;;;;;;5043622;28;20056;-52
2021/04/04 01:49:10;;;;;;;35.78;7.82;;;5.60;99.90;;;;;;5047959;28;20028;-54
2021/04/04 01:51:37;;;;;;;38.05;7.78;;;5.70;99.90;;;;;;5045718;28;20036;-52
2021/04/04 01:54:04;;;;;;;41.20;9.30;;;5.70;99.90;;;;;;5048227;28;20024;-51
2021/04/04 01:56:30;;;;;;;39.50;7.80;;;5.70;99.90;;;;;;5049832;28;20461;-54
2021/04/04 01:58:57;;;;;;;35.80;8.50;;;5.70;99.90;;;;;;5050436;28;20112;-52
2021/04/04 02:01:23;;;;;;;30.25;7.07;;;5.70;99.90;;;;;;5050275;28;20064;-50
2021/04/04 02:03:49;;;;;;;34.47;8.32;;;5.80;99.90;;;;;;5046113;28;20067;-51
2021/04/04 02:06:18;;;;;;;36.88;7.65;;;5.70;99.90;;;;;;5046462;28;20055;-55
2021/04/04 02:08:45;;;;;;;35.97;7.88;;;5.70;99.90;;;;;;5048649;28;20021;-53
2021/04/04 02:11:22;;;;;;;45.75;10.63;;;5.70;99.90;;;;;;5050194;28;20039;-50
2021/04/04 02:13:49;;;;;;;33.83;7.88;;;5.70;99.90;;;;;;5049261;28;20017;-52
2021/04/04 02:16:16;;;;;;;34.40;7.03;;;5.70;99.90;;;;;;5047234;28;20029;-53
2021/04/04 02:18:44;;;;;;;40.97;8.32;;;5.60;99.90;;;;;;5047037;28;20063;-54
2021/04/04 02:21:11;;;;;;;35.90;9.30;;;5.70;99.90;;;;;;5041637;28;20021;-52
2021/04/04 02:23:37;;;;;;;38.38;9.40;;;5.70;99.90;;;;;;5052195;28;20023;-53
2021/04/04 02:26:02;;;;;;;35.20;7.82;;;5.60;99.90;;;;;;5051771;28;20025;-52
2021/04/04 02:28:30;;;;;;;32.63;8.25;;;5.60;99.90;;;;;;5056616;28;20029;-53
2021/04/04 02:30:55;;;;;;;42.10;8.20;;;5.60;99.90;;;;;;5044898;28;20057;-53
2021/04/04 02:33:41;;;;;;;26.80;7.85;;;5.60;99.90;;;;;;5048225;28;20110;-51
2021/04/04 02:36:11;;;;;;;37.65;7.63;;;5.60;99.90;;;;;;5049220;28;20017;-52
2021/04/04 02:38:43;;;;;;;33.88;8.32;;;5.50;99.90;;;;;;5047473;28;20112;-50
2021/04/04 02:41:10;;;;;;;40.13;8.88;;;5.60;99.90;;;;;;5047821;28;20021;-54
2021/04/04 02:43:42;;;;;;;37.15;7.85;;;5.60;99.90;;;;;;5047647;28;20363;-50
2021/04/04 02:46:14;;;;;;;27.48;6.80;;;5.60;99.90;;;;;;5049865;28;20047;-53
2021/04/04 02:48:47;;;;;;;45.22;7.80;;;5.60;99.90;;;;;;5045403;28;20025;-51
2021/04/04 02:51:16;;;;;;;37.65;8.38;;;5.60;99.90;;;;;;5047239;28;20441;-52
2021/04/04 02:53:46;;;;;;;46.17;7.82;;;5.60;99.90;;;;;;5048303;28;20021;-53
2021/04/04 02:56:15;;;;;;;35.38;7.25;;;5.50;99.90;;;;;;5049324;28;20028;-54
2021/04/04 02:58:43;;;;;;;37.53;7.45;;;5.50;99.90;;;;;;5049523;28;20503;-50
2021/04/04 03:01:10;;;;;;;36.05;6.90;;;5.60;99.90;;;;;;5048034;28;20033;-50
2021/04/04 03:03:38;;;;;;;36.95;7.60;;;5.50;99.90;;;;;;5048747;28;20082;-52
2021/04/04 03:06:06;;;;;;;39.65;7.63;;;5.50;99.90;;;;;;5048265;28;20033;-52
2021/04/04 03:08:36;;;;;;;30.13;8.18;;;5.50;99.90;;;;;;5048662;28;20025;-50
2021/04/04 03:11:02;;;;;;;40.45;7.80;;;5.60;99.90;;;;;;5048879;28;20024;-51
2021/04/04 03:13:29;;;;;;;38.85;7.40;;;5.60;99.90;;;;;;5048354;28;20033;-49
2021/04/04 03:15:56;;;;;;;31.98;7.00;;;5.60;99.90;;;;;;5048533;28;20394;-53
2021/04/04 03:18:25;;;;;;;31.55;7.28;;;5.60;99.90;;;;;;5042913;28;20029;-54
2021/04/04 03:20:52;;;;;;;45.80;10.00;;;5.60;99.90;;;;;;5042991;28;20483;-49
2021/04/04 03:23:19;;;;;;;34.00;6.82;;;5.60;99.90;;;;;;5045156;28;20029;-51
2021/04/04 03:25:46;;;;;;;28.02;6.93;;;5.60;99.90;;;;;;5049415;28;20398;-50
2021/04/04 03:28:14;;;;;;;37.72;6.80;;;5.60;99.90;;;;;;5024927;28;20025;-53
2021/04/04 03:30:43;;;;;;;25.38;6.72;;;5.60;99.90;;;;;;5048784;28;20048;-51
2021/04/04 03:33:13;;;;;;;31.10;7.05;;;5.60;99.90;;;;;;5047226;28;20471;-53
2021/04/04 03:35:40;;;;;;;32.10;9.25;;;5.60;99.90;;;;;;5043544;28;20100;-50
2021/04/04 03:38:08;;;;;;;45.80;9.18;;;5.60;99.90;;;;;;5048060;28;20052;-53
2021/04/04 03:40:34;;;;;;;26.27;6.55;;;5.60;99.90;;;;;;5048631;28;20029;-51
2021/04/04 03:43:03;;;;;;;31.55;7.38;;;5.60;99.90;;;;;;5048376;28;20541;-53
2021/04/04 03:45:29;;;;;;;30.48;7.65;;;5.60;99.90;;;;;;5047973;28;20025;-53
2021/04/04 03:47:57;;;;;;;32.80;7.07;;;5.60;99.90;;;;;;5049135;28;20090;-51
2021/04/04 03:50:23;;;;;;;37.10;7.78;;;5.60;99.90;;;;;;5047126;28;20100;-54
2021/04/04 03:52:50;;;;;;;33.55;8.50;;;5.60;99.90;;;;;;5046115;28;20029;-49
2021/04/04 03:55:21;;;;;;;41.58;7.32;;;5.60;99.90;;;;;;5052438;28;20371;-55
2021/04/04 03:57:48;;;;;;;32.72;7.63;;;5.60;99.90;;;;;;5052482;28;20025;-52
2021/04/04 04:00:16;;;;;;;38.42;7.15;;;5.60;99.90;;;;;;5052682;28;20037;-51
2021/04/04 04:02:44;;;;;;;35.50;8.27;;;5.60;99.90;;;;;;5048263;28;20359;-51
2021/04/04 04:05:10;;;;;;;47.63;9.50;;;5.60;99.90;;;;;;5050755;28;20033;-53
2021/04/04 04:07:38;;;;;;;32.42;8.00;;;5.70;99.90;;;;;;5048819;28;20082;-53
2021/04/04 04:10:05;;;;;;;32.20;8.18;;;5.70;99.90;;;;;;5052188;28;20029;-52
2021/04/04 04:12:33;;;;;;;38.95;9.05;;;5.70;99.90;;;;;;5055255;28;20021;-50
2021/04/04 04:14:59;;;;;;;41.22;9.57;;;5.70;99.90;;;;;;5053609;28;20390;-49
2021/04/04 04:17:26;;;;;;;34.40;7.80;;;5.70;99.90;;;;;;5048766;28;20044;-53
2021/04/04 04:19:52;;;;;;;29.70;7.85;;;5.60;99.90;;;;;;5052362;28;20428;-53
2021/04/04 04:22:20;;;;;;;34.70;8.18;;;5.60;99.90;;;;;;5050163;28;20497;-53
2021/04/04 04:24:48;;;;;;;37.03;8.13;;;5.60;99.90;;;;;;5050388;28;20029;-52
2021/04/04 04:27:14;;;;;;;36.17;8.35;;;5.60;99.90;;;;;;5051894;28;20017;-52
2021/04/04 04:29:40;;;;;;;31.15;8.13;;;5.60;99.90;;;;;;5052067;28;20193;-51
2021/04/04 04:32:06;;;;;;;44.38;9.18;;;5.50;99.90;;;;;;5049522;28;20478;-49
2021/04/04 04:34:33;;;;;;;45.55;8.93;;;5.50;99.90;;;;;;5044193;28;20025;-52
2021/04/04 04:36:59;;;;;;;34.30;7.65;;;5.50;99.90;;;;;;5043643;28;20037;-53
2021/04/04 04:39:25;;;;;;;44.78;9.02;;;5.60;99.90;;;;;;5051505;28;20025;-53
2021/04/04 04:41:51;;;;;;;32.47;7.47;;;5.60;99.90;;;;;;5051049;28;20032;-52
2021/04/04 04:44:26;;;;;;;34.53;7.95;;;5.60;99.90;;;;;;5051193;28;20484;-52
2021/04/04 04:46:52;;;;;;;40.78;8.80;;;5.50;99.90;;;;;;5041059;28;20025;-50
2021/04/04 04:49:18;;;;;;;40.80;8.25;;;5.50;99.90;;;;;;5038495;28;20115;-52
2021/04/04 04:51:48;;;;;;;35.08;7.72;;;5.50;99.90;;;;;;5045180;28;20032;-54
2021/04/04 04:54:15;;;;;;;36.58;9.85;;;5.50;99.90;;;;;;5049763;28;20170;-52
2021/04/04 04:56:41;;;;;;;28.33;7.63;;;5.60;99.90;;;;;;5051220;28;20112;-51
2021/04/04 04:59:08;;;;;;;33.78;8.57;;;5.50;99.90;;;;;;5050911;28;20021;-53
2021/04/04 05:01:48;;;;;;;34.13;8.93;;;5.50;99.90;;;;;;5041197;28;20520;-52
2021/04/04 05:04:13;;;;;;;30.17;8.50;;;5.60;99.90;;;;;;5038811;28;20025;-50
2021/04/04 05:06:47;;;;;;;35.15;8.50;;;5.60;99.90;;;;;;5041713;28;20044;-51
2021/04/04 05:09:13;;;;;;;37.28;8.48;;;5.60;99.90;;;;;;5050529;28;20482;-51
2021/04/04 05:11:45;;;;;;;32.25;8.48;;;5.60;99.90;;;;;;5050783;28;20037;-51
2021/04/04 05:14:12;;;;;;;30.50;7.70;;;5.60;99.90;;;;;;5050297;28;20025;-52
2021/04/04 05:16:38;;;;;;;34.45;8.00;;;5.50;99.90;;;;;;5046630;28;20031;-54
2021/04/04 05:19:07;;;;;;;27.85;8.20;;;5.50;99.90;;;;;;5042570;28;20518;-54
2021/04/04 05:21:33;;;;;;;26.65;8.07;;;5.50;99.90;;;;;;5046115;28;20029;-52
2021/04/04 05:24:00;;;;;;;37.25;8.45;;;5.60;99.90;;;;;;5055165;28;20039;-51
2021/04/04 05:26:32;;;;;;;36.35;8.40;;;5.60;99.90;;;;;;5051015;28;20029;-53
2021/04/04 05:29:02;;;;;;;47.20;11.30;;;5.60;99.90;;;;;;5056947;28;20028;-49
2021/04/04 05:31:29;;;;;;;36.40;8.70;;;5.60;99.90;;;;;;5043870;28;20060;-50
2021/04/04 05:33:54;;;;;;;29.10;8.27;;;5.60;99.90;;;;;;5045575;28;20034;-52
2021/04/04 05:36:20;;;;;;;47.20;8.32;;;5.60;99.90;;;;;;5043969;28;20548;-49
2021/04/04 05:38:46;;;;;;;46.28;9.48;;;5.70;99.90;;;;;;5055330;28;20051;-49
2021/04/04 05:41:12;;;;;;;26.15;7.93;;;5.70;99.90;;;;;;5049987;28;20037;-51
2021/04/04 05:43:45;;;;;;;28.58;9.25;;;5.70;99.90;;;;;;5036844;28;20414;-51
2021/04/04 05:46:22;;;;;;;33.95;8.55;;;5.70;99.90;;;;;;5047919;28;20029;-49
2021/04/04 05:49:02;;;;;;;40.03;7.05;;;5.70;99.90;;;;;;5043983;28;20040;-51
2021/04/04 05:51:37;;;;;;;35.15;8.13;;;5.70;99.90;;;;;;5042759;28;20040;-52
2021/04/04 05:54:25;;;;;;;37.65;9.10;;;5.70;99.90;;;;;;5049254;28;20062;-51
2021/04/04 05:56:53;;;;;;;31.70;7.68;;;5.60;99.90;;;;;;5044302;28;20393;-53
2021/04/04 05:59:44;;;;;;;35.17;7.25;;;5.60;99.90;;;;;;5054084;28;20505;-52
2021/04/04 06:02:18;;;;;;;20.33;6.75;;;5.60;99.90;;;;;;5040344;28;20062;-52
2021/04/04 06:04:44;;;;;;;;;;;5.60;99.90;;;;;;5043689;28;20386;-52
2021/04/04 06:07:37;;;;;;;32.42;7.65;;;5.70;99.90;;;;;;5047932;28;19909;-49
2021/04/04 06:10:04;;;;;;;33.55;8.13;;;5.70;99.90;;;;;;5048101;28;20078;-51
2021/04/04 06:12:58;;;;;;;32.05;7.90;;;5.80;99.90;;;;;;5048251;28;20024;-53
2021/04/04 06:15:38;;;;;;;27.38;7.00;;;5.80;99.90;;;;;;5043454;28;20853;-51
2021/04/04 06:18:27;;;;;;;28.08;7.10;;;5.80;99.90;;;;;;5043103;28;20039;-54
2021/04/04 06:21:03;;;;;;;32.22;7.47;;;5.90;99.90;;;;;;5036655;28;20043;-55
2021/04/04 06:23:33;;;;;;;28.75;6.72;;;5.90;99.90;;;;;;5042410;28;20501;-50
2021/04/04 06:26:08;;;;;;;31.17;8.32;;;5.90;99.90;;;;;;5050498;28;20697;-52
2021/04/04 06:28:45;;;;;;;44.40;7.43;;;5.90;99.90;;;;;;5050019;28;20525;-52
2021/04/04 06:31:53;;;;;;;34.80;7.13;;;5.80;99.90;;;;;;5047048;28;20390;-51
2021/04/04 06:34:40;;;;;;;29.45;8.00;;;5.80;99.90;;;;;;5033835;28;20398;-51
2021/04/04 06:37:28;;;;;;;35.88;7.35;;;5.90;99.90;;;;;;5045653;28;20067;-49
2021/04/04 06:40:14;;;;;;;23.42;6.90;;;5.90;99.90;;;;;;5047153;28;20067;-50
2021/04/04 06:43:27;;;;;;;33.17;7.43;;;5.90;99.90;;;;;;5045279;28;20021;-51
2021/04/04 06:46:11;;;;;;;32.28;7.18;;;5.90;99.90;;;;;;5030949;28;20041;-52
2021/04/04 06:49:00;;;;;;;36.97;8.63;;;6.00;99.90;;;;;;5027946;28;20506;-49
2021/04/04 06:52:09;;;;;;;29.13;6.90;;;6.00;99.90;;;;;;5040531;28;20032;-48
2021/04/04 06:55:01;;;;;;;33.42;6.20;;;6.00;99.90;;;;;;5023150;28;20483;-51
2021/04/04 06:57:37;;;;;;;37.78;7.60;;;6.00;99.90;;;;;;5047326;28;20039;-53
2021/04/04 07:00:09;;;;;;;28.40;7.40;;;6.00;99.90;;;;;;5048233;28;20052;-48
2021/04/04 07:02:49;;;;;;;24.52;7.18;;;6.10;99.90;;;;;;5043705;28;20036;-52
2021/04/04 07:05:19;;;;;;;29.33;6.40;;;6.10;99.90;;;;;;5049215;28;20033;-49
2021/04/04 07:08:04;;;;;;;34.50;7.00;;;6.20;99.90;;;;;;5044123;28;20043;-49
2021/04/04 07:10:54;;;;;;;42.13;7.95;;;6.30;99.90;;;;;;5051886;28;20416;-48
2021/04/04 07:13:40;;;;;;;34.55;7.57;;;6.30;99.90;;;;;;5044990;28;20399;-49
2021/04/04 07:16:20;;;;;;;27.30;8.52;;;6.30;99.90;;;;;;5038787;28;21914;-53
2021/04/04 07:18:58;;;;;;;21.05;6.38;;;6.20;99.90;;;;;;5037238;28;20514;-49
2021/04/04 07:21:47;;;;;;;27.48;8.05;;;6.20;99.90;;;;;;5034770;28;20039;-53
2021/04/04 07:24:50;;;;;;;24.48;6.20;;;6.30;99.90;;;;;;5046372;28;20037;-52
2021/04/04 07:27:36;;;;;;;30.27;6.80;;;6.30;99.90;;;;;;5047226;28;20064;-51
2021/04/04 07:30:33;;;;;;;27.63;7.07;;;6.40;99.90;;;;;;5049189;28;20032;-51
2021/04/04 07:33:24;;;;;;;37.35;6.85;;;6.40;99.90;;;;;;5040585;28;20528;-55
2021/04/04 07:36:11;;;;;;;28.00;6.90;;;6.60;99.90;;;;;;5041512;28;20031;-52
2021/04/04 07:39:01;;;;;;;30.77;7.03;;;6.60;99.90;;;;;;5047599;28;20040;-54
2021/04/04 07:41:39;;;;;;;44.38;6.88;;;6.70;99.90;;;;;;5049699;28;20029;-51
2021/04/04 07:44:24;;;;;;;28.10;6.90;;;6.70;99.90;;;;;;5050436;28;20072;-52
2021/04/04 07:47:08;;;;;;;;;;;6.70;99.90;;;;;;5039383;28;20025;-52
2021/04/04 07:49:40;;;;;;;25.38;6.75;;;6.70;99.90;;;;;;5038091;28;19913;-53
2021/04/04 07:52:32;;;;;;;26.05;8.40;;;6.70;99.90;;;;;;5041845;28;20074;-51
2021/04/04 07:55:16;;;;;;;28.00;6.68;;;6.70;99.90;;;;;;5046139;28;20529;-49
2021/04/04 07:58:08;;;;;;;41.83;8.57;;;6.60;99.90;;;;;;5049294;28;20025;-49
2021/04/04 08:00:35;;;;;;;34.60;9.23;;;6.60;99.90;;;;;;5046310;28;20499;-48
2021/04/04 08:03:14;;;;;;;36.17;8.63;;;6.70;99.90;;;;;;5040178;28;20044;-52
2021/04/04 08:05:46;;;;;;;25.17;8.35;;;6.70;99.90;;;;;;5044726;28;20028;-49
2021/04/04 08:08:35;;;;;;;27.63;7.45;;;6.80;99.90;;;;;;5051438;28;20037;-50
2021/04/04 08:11:21;;;;;;;43.28;10.68;;;6.90;99.90;;;;;;5050314;28;20162;-49
2021/04/04 08:13:55;;;;;;;27.60;7.50;;;7.00;99.90;;;;;;5048991;28;20592;-51
2021/04/04 08:16:43;;;;;;;34.63;10.80;;;7.00;99.90;;;;;;5046900;28;20087;-52
2021/04/04 08:19:10;;;;;;;38.45;10.38;;;6.90;99.90;;;;;;5044463;28;20132;-49
2021/04/04 08:21:45;;;;;;;34.13;8.82;;;6.90;99.90;;;;;;5044522;28;20398;-55
2021/04/04 08:24:19;;;;;;;34.67;9.48;;;6.70;99.90;;;;;;5052051;28;20060;-53
2021/04/04 08:26:49;;;;;;;26.65;7.38;;;6.70;99.90;;;;;;5051210;28;20028;-49
2021/04/04 08:29:23;;;;;;;37.53;9.98;;;6.70;99.90;;;;;;5051108;28;20033;-52
2021/04/04 08:32:05;;;;;;;40.20;10.38;;;6.70;99.90;;;;;;5050150;28;20021;-54
2021/04/04 08:34:42;;;;;;;62.72;16.20;;;6.70;99.90;;;;;;5042715;28;20044;-53
2021/04/04 08:37:32;;;;;;;39.78;12.35;;;6.70;99.90;;;;;;5048714;28;20450;-51
2021/04/04 08:40:01;;;;;;;31.55;10.50;;;6.70;99.90;;;;;;5049606;28;20025;-53
2021/04/04 08:42:29;;;;;;;31.55;9.30;;;6.70;99.90;;;;;;5050646;28;20086;-53
2021/04/04 08:45:22;;;;;;;32.60;10.05;;;6.80;99.90;;;;;;5046273;28;20128;-49
2021/04/04 08:47:50;;;;;;;45.65;14.20;;;6.80;99.90;;;;;;5003392;28;20044;-50
2021/04/04 08:50:22;;;;;;;35.53;14.02;;;6.80;99.90;;;;;;5046419;28;20108;-52
2021/04/04 08:52:59;;;;;;;37.30;12.77;;;6.70;99.90;;;;;;5048428;28;20021;-51
2021/04/04 08:55:29;;;;;;;31.52;11.50;;;6.70;99.90;;;;;;5029566;28;20047;-51
2021/04/04 08:57:59;;;;;;;34.97;12.75;;;6.80;99.90;;;;;;5046142;28;20060;-53
2021/04/04 09:00:28;;;;;;;33.28;11.68;;;6.90;99.90;;;;;;5045438;28;20028;-52
2021/04/04 09:02:56;;;;;;;36.22;11.57;;;6.90;99.90;;;;;;5047996;28;20029;-54
2021/04/04 09:05:25;;;;;;;24.13;10.10;;;6.70;99.90;;;;;;5048873;28;20036;-54
2021/04/04 09:07:54;;;;;;;29.50;9.02;;;6.90;99.90;;;;;;5048853;28;20032;-51
2021/04/04 09:10:21;;;;;;;35.40;11.10;;;7.00;99.90;;;;;;5037253;28;20505;-54
2021/04/04 09:12:48;;;;;;;32.08;8.60;;;7.00;99.90;;;;;;5050172;28;20021;-49
2021/04/04 09:15:14;;;;;;;31.42;9.15;;;7.00;99.90;;;;;;5045521;28;20794;-50
2021/04/04 09:17:55;;;;;;;51.78;10.57;;;7.00;99.90;;;;;;5049957;28;20060;-53
2021/04/04 09:20:31;;;;;;;31.60;10.27;;;7.00;99.90;;;;;;5047680;28;20483;-52
2021/04/04 09:22:59;;;;;;;35.17;7.72;;;7.00;99.90;;;;;;5048239;28;20163;-55
2021/04/04 09:25:26;;;;;;;32.17;7.40;;;6.90;99.90;;;;;;5049663;28;20032;-53
2021/04/04 09:27:57;;;;;;;17.60;5.95;;;6.90;99.90;;;;;;5048755;28;20036;-54
2021/04/04 09:30:23;;;;;;;22.17;6.00;;;6.80;99.90;;;;;;5049488;28;20029;-54
2021/04/04 09:32:54;;;;;;;28.95;8.48;;;6.80;99.90;;;;;;5049963;28;20086;-53
2021/04/04 09:35:21;;;;;;;22.63;8.52;;;6.80;99.90;;;;;;5048644;28;20057;-54
2021/04/04 09:37:48;;;;;;;30.00;9.48;;;6.80;99.90;;;;;;5049780;28;20517;-52
2021/04/04 09:40:17;;;;;;;24.60;9.15;;;6.90;99.90;;;;;;5046333;28;20509;-54
2021/04/04 09:42:43;;;;;;;29.92;7.82;;;6.90;99.90;;;;;;5049783;28;20537;-49
2021/04/04 09:45:20;;;;;;;28.05;7.43;;;6.90;99.90;;;;;;5048720;28;20029;-51
2021/04/04 09:47:47;;;;;;;37.15;12.60;;;6.90;99.90;;;;;;5047101;28;20037;-51
2021/04/04 09:50:28;;;;;;;24.98;9.23;;;6.70;99.90;;;;;;5048148;28;20033;-54
2021/04/04 09:52:55;;;;;;;25.50;6.78;;;6.70;99.90;;;;;;5048166;28;20040;-50
2021/04/04 09:55:23;;;;;;;19.15;6.40;;;6.80;99.90;;;;;;5048012;28;20476;-52
2021/04/04 09:57:54;;;;;;;21.65;6.97;;;6.80;99.90;;;;;;5044377;28;20021;-53
2021/04/04 10:00:37;;;;;;;20.05;6.07;;;6.70;99.90;;;;;;5041908;28;20048;-53
2021/04/04 10:03:15;;;;;;;19.73;5.90;;;6.80;99.90;;;;;;5046550;28;20053;-51
2021/04/04 10:05:50;;;;;;;14.35;5.75;;;6.80;99.90;;;;;;5049244;28;20146;-50
2021/04/04 10:08:16;;;;;;;25.80;6.07;;;6.80;99.90;;;;;;5045427;28;20017;-54
2021/04/04 10:10:44;;;;;;;16.75;5.10;;;6.80;99.90;;;;;;5046716;28;20017;-53
2021/04/04 10:13:10;;;;;;;31.88;6.82;;;6.80;99.90;;;;;;5048085;28;20025;-53
2021/04/04 10:15:49;;;;;;;26.13;8.82;;;6.80;99.90;;;;;;5046609;28;20506;-50
2021/04/04 10:18:19;;;;;;;24.52;9.32;;;6.90;99.90;;;;;;5047526;28;20025;-53
2021/04/04 10:20:55;;;;;;;33.13;10.40;;;6.90;99.90;;;;;;5047651;28;20028;-52
2021/04/04 10:23:31;;;;;;;32.28;10.15;;;6.90;99.90;;;;;;5048627;28;20060;-53
2021/04/04 10:26:03;;;;;;;28.30;11.27;;;6.90;99.90;;;;;;5042772;28;20075;-53
2021/04/04 10:28:41;;;;;;;35.92;12.90;;;7.00;99.90;;;;;;5048049;28;20089;-52
2021/04/04 10:31:07;;;;;;;55.83;15.57;;;7.00;99.90;;;;;;5048810;28;20397;-52
2021/04/04 10:33:32;;;;;;;40.25;15.25;;;7.10;99.90;;;;;;5049212;28;20091;-53
2021/04/04 10:36:19;;;;;;;32.05;12.90;;;7.10;99.90;;;;;;5046886;28;20071;-52
2021/04/04 10:38:45;;;;;;;32.95;11.55;;;7.10;99.90;;;;;;5047741;28;20039;-54
2021/04/04 10:41:10;;;;;;;23.58;9.25;;;7.10;99.90;;;;;;5047417;28;20021;-53
2021/04/04 10:43:40;;;;;;;29.15;7.32;;;7.10;99.90;;;;;;5042110;28;20108;-53
2021/04/04 10:46:08;;;;;;;23.02;7.18;;;7.10;99.90;;;;;;5047128;28;20044;-52
2021/04/04 10:48:38;;;;;;;26.58;7.68;;;7.10;99.90;;;;;;5045765;28;20040;-50
2021/04/04 10:51:06;;;;;;;25.30;8.10;;;7.00;99.90;;;;;;5047807;28;20064;-50
2021/04/04 10:53:32;;;;;;;16.10;5.50;;;7.10;99.90;;;;;;5048936;28;20142;-50
2021/04/04 10:55:59;;;;;;;25.60;6.30;;;7.10;99.90;;;;;;5046528;28;20067;-51
2021/04/04 10:58:28;;;;;;;15.63;6.15;;;7.10;99.90;;;;;;5046806;28;20115;-51
2021/04/04 11:00:58;;;;;;;15.85;5.97;;;7.30;99.90;;;;;;5047696;28;20028;-50
2021/04/04 11:03:25;;;;;;;21.50;6.18;;;7.40;99.90;;;;;;5051648;28;20029;-52
2021/04/04 11:05:51;;;;;;;23.33;7.40;;;7.40;99.90;;;;;;5051623;28;20162;-56
2021/04/04 11:08:18;;;;;;;17.17;8.50;;;7.40;99.90;;;;;;5048760;28;20116;-53
2021/04/04 11:10:44;;;;;;;17.25;8.38;;;7.40;99.90;;;;;;5048053;28;20025;-52
2021/04/04 11:13:13;;;;;;;24.00;7.90;;;7.40;99.90;;;;;;5052841;28;20029;-52
2021/04/04 11:15:41;;;;;;;18.95;7.20;;;7.50;99.90;;;;;;5052078;28;20021;-50
2021/04/04 11:18:28;;;;;;;17.80;6.13;;;7.60;99.90;;;;;;5050170;28;20237;-50
2021/04/04 11:20:56;;;;;;;18.83;7.60;;;7.60;99.90;;;;;;5046244;28;20028;-56
2021/04/04 11:23:23;;;;;;;23.20;7.88;;;7.50;99.90;;;;;;5052360;28;20025;-49
2021/04/04 11:25:49;;;;;;;21.00;7.15;;;7.40;99.90;;;;;;5051196;28;20083;-50
2021/04/04 11:28:19;;;;;;;23.77;7.07;;;7.50;99.90;;;;;;5050373;28;21122;-50
2021/04/04 11:30:47;;;;;;;29.38;6.85;;;7.40;99.90;;;;;;5052828;28;20025;-52
2021/04/04 11:33:19;;;;;;;19.13;6.68;;;7.40;99.90;;;;;;5052765;28;20116;-51
2021/04/04 11:36:03;;;;;;;21.20;6.32;;;7.40;99.90;;;;;;5053793;28;20036;-51
2021/04/04 11:38:31;;;;;;;20.35;5.65;;;7.60;99.90;;;;;;5052570;28;20052;-50
2021/04/04 11:41:29;;;;;;;23.17;5.90;;;7.70;99.90;;;;;;5052386;28;20029;-52
2021/04/04 11:44:24;;;;;;;17.70;5.47;;;7.70;99.90;;;;;;5047604;28;20039;-50
2021/04/04 11:47:04;;;;;;;14.63;6.28;;;7.60;99.90;;;;;;5053301;28;20021;-50
2021/04/04 11:49:30;;;;;;;21.25;7.30;;;7.60;99.90;;;;;;5052967;28;20041;-50
2021/04/04 11:51:56;;;;;;;18.92;5.63;;;7.60;99.90;;;;;;5034728;28;20074;-53
2021/04/04 11:54:41;;;;;;;13.35;5.20;;;7.70;99.90;;;;;;5051446;28;20045;-52
2021/04/04 11:57:07;;;;;;;21.15;6.20;;;7.90;99.90;;;;;;5048553;28;20041;-51
2021/04/04 11:59:32;;;;;;;17.58;6.20;;;7.90;99.90;;;;;;5050041;28;20551;-49
2021/04/04 12:01:58;;;;;;;20.92;5.85;;;8.00;99.90;;;;;;5050420;28;20037;-50
2021/04/04 12:04:34;;;;;;;18.13;5.50;;;8.10;99.90;;;;;;5050849;28;20040;-54
2021/04/04 12:07:10;;;;;;;19.02;6.70;;;8.00;99.90;;;;;;5049877;28;20041;-50
2021/04/04 12:09:37;;;;;;;21.55;7.35;;;7.90;99.90;;;;;;5047276;28;20025;-52
2021/04/04 12:12:04;;;;;;;21.75;7.97;;;7.90;99.90;;;;;;5050357;28;20082;-54
2021/04/04 12:14:30;;;;;;;15.20;7.82;;;7.90;99.90;;;;;;5049199;28;20036;-54
2021/04/04 12:16:56;;;;;;;19.10;9.07;;;7.80;99.90;;;;;;5044122;28;20045;-50
2021/04/04 12:19:30;;;;;;;18.23;8.45;;;7.90;99.90;;;;;;5048122;28;20562;-50
2021/04/04 12:21:57;;;;;;;17.95;9.82;;;8.10;99.90;;;;;;5044615;28;20036;-53
2021/04/04 12:24:40;;;;;;;20.30;9.20;;;8.10;99.90;;;;;;5048658;28;20083;-55
2021/04/04 12:27:07;;;;;;;24.27;8.80;;;8.10;99.90;;;;;;5049973;28;20306;-50
2021/04/04 12:29:46;;;;;;;26.98;9.18;;;8.10;99.90;;;;;;5049662;28;20583;-57
2021/04/04 12:32:30;;;;;;;26.08;9.27;;;8.20;99.90;;;;;;5050439;28;20032;-55
2021/04/04 12:34:59;;;;;;;27.92;10.40;;;8.20;99.90;;;;;;5046785;28;20335;-51
2021/04/04 12:37:27;;;;;;;30.50;9.13;;;8.00;99.90;;;;;;5048954;28;20082;-52
2021/04/04 12:39:54;;;;;;;18.08;7.65;;;8.00;99.90;;;;;;5046000;28;20056;-53
2021/04/04 12:42:25;;;;;;;15.50;7.20;;;8.00;99.90;;;;;;5048936;28;20147;-51
2021/04/04 12:44:50;;;;;;;22.25;8.27;;;8.00;99.90;;;;;;5048318;28;20401;-50
2021/04/04 12:47:22;;;;;;;18.50;8.30;;;8.00;99.90;;;;;;5046466;28;20048;-50
2021/04/04 12:49:57;;;;;;;19.05;9.63;;;8.10;99.90;;;;;;5039418;28;20502;-51
2021/04/04 12:52:52;;;;;;;26.55;8.88;;;8.10;99.90;;;;;;5047430;28;20068;-54
2021/04/04 12:55:19;;;;;;;29.08;10.18;;;8.20;99.90;;;;;;5048381;28;20025;-51
2021/04/04 12:57:47;;;;;;;24.17;11.18;;;8.20;99.90;;;;;;5048567;28;20035;-53
2021/04/04 13:00:15;;;;;;;30.90;11.88;;;7.80;99.90;;;;;;5047424;28;20496;-49
2021/04/04 13:02:40;;;;;;;31.35;11.65;;;7.90;99.90;;;;;;5048789;28;20505;-52
2021/04/04 13:05:07;;;;;;;35.33;14.75;;;8.00;99.90;;;;;;5047404;28;20041;-50
2021/04/04 13:07:32;;;;;;;28.80;13.65;;;8.00;99.90;;;;;;5046906;28;20032;-51
2021/04/04 13:09:58;;;;;;;22.00;12.85;;;7.90;99.90;;;;;;5047192;28;20029;-50
2021/04/04 13:12:24;;;;;;;29.33;14.55;;;7.90;99.90;;;;;;5051848;28;20024;-50